createdAt,value
2018-09-22T00:01:19.532Z,73
2018-09-22T00:06:21.825Z,72.900002
2018-09-22T00:11:24.245Z,72.900002
2018-09-22T00:16:26.629Z,72.900002
2018-09-22T00:21:28.865Z,73.300003
2018-09-22T00:26:31.109Z,73.199997
2018-09-22T00:31:33.360Z,73.699997
2018-09-22T00:36:35.915Z,73.800003
2018-09-22T00:41:37.915Z,73.699997
2018-09-22T00:46:40.290Z,74.199997
2018-09-22T00:51:42.536Z,74.900002
2018-09-22T00:56:46.510Z,75.400002
2018-09-22T01:01:47.172Z,76.199997
2018-09-22T01:06:49.509Z,76.400002
2018-09-22T01:11:51.801Z,77.099998
2018-09-22T01:16:54.009Z,77.099998
2018-09-22T01:21:56.506Z,77.5
2018-09-22T01:26:58.727Z,77.599998
2018-09-22T01:32:00.858Z,77.5
2018-09-22T01:37:03.194Z,78.099998
2018-09-22T01:42:05.578Z,77.900002
2018-09-22T01:47:07.786Z,78.099998
2018-09-22T01:52:10.106Z,77.599998
2018-09-22T01:57:12.404Z,77.599998
2018-09-22T02:02:14.650Z,77
2018-09-22T02:07:16.892Z,76.900002
2018-09-22T02:12:19.343Z,77.099998
2018-09-22T02:17:21.579Z,77.300003
2018-09-22T02:22:23.804Z,77.800003
2018-09-22T02:27:26.146Z,78.199997
2018-09-22T02:32:28.513Z,78.5
2018-09-22T02:37:30.791Z,79
2018-09-22T02:42:33.064Z,79.599998
2018-09-22T02:47:35.342Z,79.800003
2018-09-22T02:52:37.630Z,80.599998
2018-09-22T02:57:39.990Z,81.099998
2018-09-22T03:02:42.462Z,81.599998
2018-09-22T03:07:44.565Z,82.599998
2018-09-22T03:12:46.872Z,83.300003
2018-09-22T03:17:49.138Z,83.699997
2018-09-22T03:22:51.356Z,84.300003
2018-09-22T03:27:53.760Z,84.300003
2018-09-22T03:32:55.984Z,84.800003
2018-09-22T03:37:58.561Z,85.300003
2018-09-22T03:43:00.466Z,85.400002
2018-09-22T03:48:02.871Z,85.699997
2018-09-22T03:53:05.287Z,85.699997
2018-09-22T03:58:07.354Z,86
2018-09-22T04:03:09.683Z,86
2018-09-22T04:08:12.066Z,86.099998
2018-09-22T04:13:14.418Z,86.099998
2018-09-22T04:18:16.575Z,86.400002
2018-09-22T04:23:18.915Z,86.199997
2018-09-22T04:28:21.251Z,86.400002
2018-09-22T04:33:23.665Z,86.699997
2018-09-22T04:38:25.756Z,86.699997
2018-09-22T04:43:28.146Z,86.800003
2018-09-22T04:48:30.336Z,87
2018-09-22T04:53:32.633Z,87.099998
2018-09-22T04:58:35.112Z,87.199997
2018-09-22T05:03:37.267Z,87.300003
2018-09-22T05:08:39.612Z,87.199997
2018-09-22T05:13:41.852Z,87.5
2018-09-22T05:18:44.152Z,87.699997
2018-09-22T05:23:46.493Z,87.699997
2018-09-22T05:28:48.805Z,88.099998
2018-09-22T05:33:50.972Z,88.300003
2018-09-22T05:38:53.356Z,88.199997
2018-09-22T05:43:55.663Z,88
2018-09-22T05:48:57.936Z,87.900002
2018-09-22T05:54:00.249Z,88
2018-09-22T05:59:02.481Z,87.900002
2018-09-22T06:04:04.768Z,88.199997
2018-09-22T06:09:07.103Z,88.199997
2018-09-22T06:14:09.309Z,88.199997
2018-09-22T06:19:11.667Z,88
2018-09-22T06:24:13.974Z,88
2018-09-22T06:29:16.206Z,88.300003
2018-09-22T06:34:18.554Z,88.099998
2018-09-22T06:39:21.009Z,88
2018-09-22T06:44:23.042Z,87.800003
2018-09-22T06:49:25.377Z,87.5
2018-09-22T06:54:27.759Z,86.599998
2018-09-22T06:59:30.075Z,86.199997
2018-09-22T07:04:32.326Z,84.900002
2018-09-22T07:09:34.716Z,82.900002
2018-09-22T07:14:36.931Z,82.099998
2018-09-22T07:19:39.223Z,81.5
2018-09-22T07:24:41.547Z,81
2018-09-22T07:29:43.820Z,80.199997
2018-09-22T07:34:46.114Z,78.900002
2018-09-22T07:39:48.417Z,78.199997
2018-09-22T07:44:50.638Z,78
2018-09-22T07:49:53.078Z,78.5
2018-09-22T07:54:55.252Z,78.800003
2018-09-22T07:59:57.507Z,77.699997
2018-09-22T08:04:59.952Z,78
2018-09-22T08:10:02.114Z,76.900002
2018-09-22T08:15:04.484Z,77.5
2018-09-22T08:20:06.704Z,77.199997
2018-09-22T08:25:09.151Z,77
2018-09-22T08:30:11.245Z,76.300003
2018-09-22T08:35:13.549Z,76.300003
2018-09-22T08:40:15.953Z,75
2018-09-22T08:45:18.298Z,74.099998
2018-09-22T08:50:20.419Z,73.800003
2018-09-22T08:55:22.899Z,71.300003
2018-09-22T09:00:25.016Z,72.199997
2018-09-22T09:05:27.427Z,72.5
2018-09-22T09:10:29.635Z,72
2018-09-22T09:15:31.881Z,71.699997
2018-09-22T09:30:38.855Z,69.5
2018-09-22T09:35:41.195Z,68.300003
2018-09-22T09:40:43.471Z,69.699997
2018-09-22T09:45:45.770Z,68.099998
2018-09-22T09:50:48.028Z,68.099998
2018-09-22T09:55:50.221Z,69.300003
2018-09-22T10:00:52.631Z,66.800003
2018-09-22T10:05:54.955Z,68.900002
2018-09-22T10:10:57.222Z,65.599998
2018-09-22T10:15:59.736Z,64.599998
2018-09-22T10:21:01.844Z,63.5
2018-09-22T10:26:04.064Z,64
2018-09-22T10:31:06.462Z,63.599998
2018-09-22T10:36:08.649Z,64.599998
2018-09-22T10:41:10.993Z,61.599998
2018-09-22T10:46:13.264Z,63.099998
2018-09-22T10:51:15.536Z,62
2018-09-22T10:56:17.931Z,62.299999
2018-09-22T11:01:20.094Z,63.700001
2018-09-22T11:06:22.322Z,65.800003
2018-09-22T11:11:24.676Z,68.599998
2018-09-22T11:16:27.138Z,70.5
2018-09-22T11:21:29.251Z,71.699997
2018-09-22T11:26:31.600Z,73.5
2018-09-22T11:31:34.091Z,73.099998
2018-09-22T11:36:36.132Z,73.400002
2018-09-22T11:41:38.385Z,72.400002
2018-09-22T11:46:40.843Z,71.699997
2018-09-22T11:51:43.127Z,71.099998
2018-09-22T11:56:45.466Z,67.699997
2018-09-22T12:01:47.665Z,64.900002
2018-09-22T12:06:50.173Z,65
2018-09-22T12:11:52.271Z,64.099998
2018-09-22T12:16:54.578Z,62.900002
2018-09-22T12:21:56.788Z,66.300003
2018-09-22T12:26:59.064Z,65.800003
2018-09-22T12:32:01.403Z,67.199997
2018-09-22T12:37:03.665Z,70.5
2018-09-22T12:42:05.961Z,69.699997
2018-09-22T12:47:08.385Z,68.699997
2018-09-22T12:52:10.599Z,68.699997
2018-09-22T12:57:12.876Z,69.400002
2018-09-22T13:02:15.211Z,70.599998
2018-09-22T13:07:17.431Z,66.199997
2018-09-22T13:12:19.771Z,64.599998
2018-09-22T13:27:30.701Z,63.5
2018-09-22T13:32:32.993Z,64.599998
2018-09-22T13:37:35.359Z,67.5
2018-09-22T13:42:37.515Z,68.099998
2018-09-22T13:47:39.888Z,70.300003
2018-09-22T13:52:42.224Z,69.699997
2018-09-22T13:57:44.523Z,71.400002
2018-09-22T14:02:46.780Z,70.599998
2018-09-22T14:07:49.056Z,72
2018-09-22T14:12:51.298Z,72.800003
2018-09-22T14:22:55.853Z,70.199997
2018-09-22T14:27:58.240Z,72.599998
2018-09-22T14:33:00.578Z,74.400002
2018-09-22T14:38:02.825Z,73.5
2018-09-22T14:43:05.098Z,74.699997
2018-09-22T14:48:07.460Z,74.300003
2018-09-22T14:53:09.616Z,75.800003
2018-09-22T14:58:11.979Z,75.099998
2018-09-22T15:03:14.277Z,76
2018-09-22T15:08:16.546Z,75.800003
2018-09-22T15:13:18.896Z,76.699997
2018-09-22T15:18:21.234Z,77.699997
2018-09-22T15:23:23.559Z,80
2018-09-22T15:28:25.782Z,82.699997
2018-09-22T15:33:28.114Z,82.300003
2018-09-22T15:38:30.375Z,84.300003
2018-09-22T15:43:32.627Z,83
2018-09-22T15:48:35.081Z,84.400002
2018-09-22T15:53:37.388Z,85.199997
2018-09-22T15:58:39.475Z,87.300003
2018-09-22T16:03:41.739Z,87.599998
2018-09-22T16:08:44.070Z,89.900002
2018-09-22T16:13:46.459Z,90.5
2018-09-22T16:18:48.694Z,93.099998
2018-09-22T16:23:50.967Z,96
2018-09-22T16:28:53.299Z,95.900002
2018-09-22T16:33:55.496Z,96.400002
2018-09-22T16:38:57.830Z,96.5
2018-09-22T16:44:00.215Z,98.199997
2018-09-22T16:49:02.558Z,99.599998
2018-09-22T16:54:04.933Z,98.900002
2018-09-22T17:04:09.429Z,99.599998
2018-09-22T17:09:11.679Z,99.5
2018-09-22T17:14:13.938Z,98.400002
2018-09-22T17:19:16.290Z,99.699997
2018-09-22T17:24:18.575Z,99.900002
2018-09-22T17:29:20.858Z,99.900002
2018-09-22T17:34:23.200Z,99.900002
2018-09-22T17:39:25.407Z,99.900002
2018-09-22T17:44:27.678Z,99.900002
2018-09-22T17:49:30.043Z,99.900002
2018-09-22T17:54:32.279Z,99.900002
2018-09-22T17:59:34.667Z,99.900002
2018-09-22T18:04:36.977Z,99.900002
2018-09-22T18:09:39.102Z,99.900002
2018-09-22T18:14:41.397Z,99.900002
2018-09-22T18:19:43.850Z,99.900002
2018-09-22T18:24:46.123Z,99.900002
2018-09-22T18:29:48.324Z,99.900002
2018-09-22T18:34:50.624Z,99.900002
2018-09-22T18:39:52.981Z,99.900002
2018-09-22T18:44:55.178Z,99.900002
2018-09-22T18:49:57.524Z,99.900002
2018-09-22T18:54:59.766Z,99.900002
2018-09-22T19:00:02.117Z,99.900002
2018-09-22T19:05:04.535Z,99.900002
2018-09-22T19:10:06.708Z,99.900002
2018-09-22T19:15:08.911Z,99.900002
2018-09-22T19:20:11.395Z,99.900002
2018-09-22T19:25:13.552Z,99.900002
2018-09-22T19:30:15.954Z,99.900002
2018-09-22T19:35:18.210Z,99.900002
2018-09-22T19:40:20.584Z,99.900002
2018-09-22T19:45:22.774Z,99.900002
2018-09-22T19:50:24.999Z,99.900002
2018-09-22T19:55:27.311Z,99.900002
2018-09-22T20:00:29.644Z,99.900002
2018-09-22T20:05:31.991Z,99.900002
2018-09-22T20:10:34.196Z,99.900002
2018-09-22T20:15:36.490Z,99.900002
2018-09-22T20:20:38.793Z,99.900002
2018-09-22T20:25:41.196Z,99.900002
2018-09-22T20:30:43.350Z,99.900002
2018-09-22T20:35:45.708Z,99.900002
2018-09-22T20:40:48.010Z,99.900002
2018-09-22T20:45:50.236Z,99.900002
2018-09-22T20:50:52.631Z,99.900002
2018-09-22T20:55:54.886Z,99.900002
2018-09-22T21:00:57.348Z,99.900002
2018-09-22T21:05:59.461Z,99.900002
2018-09-22T21:11:01.945Z,99.900002
2018-09-22T21:16:04.041Z,99.900002
2018-09-22T21:21:06.421Z,99.900002
2018-09-22T21:26:08.688Z,99.900002
2018-09-22T21:31:10.876Z,99.900002
2018-09-22T21:36:13.222Z,99.900002
2018-09-22T21:41:15.557Z,99.900002
2018-09-22T21:46:17.811Z,99.900002
2018-09-22T21:51:20.265Z,99.900002
2018-09-22T21:56:22.434Z,99.900002
2018-09-22T22:01:24.714Z,99.900002
2018-09-22T22:06:27.015Z,99.900002
2018-09-22T22:11:29.386Z,99.900002
2018-09-22T22:16:31.622Z,99.900002
2018-09-22T22:21:33.865Z,99.900002
2018-09-22T22:26:36.268Z,99.900002
2018-09-22T22:31:38.473Z,99.900002
2018-09-22T22:36:40.807Z,99.900002
2018-09-22T22:41:43.141Z,99.900002
2018-09-22T22:46:45.481Z,99.900002
2018-09-22T22:51:47.743Z,99.900002
2018-09-22T22:56:49.961Z,99.900002
2018-09-22T23:01:52.307Z,99.900002
2018-09-22T23:06:54.601Z,99.900002
2018-09-22T23:11:56.903Z,99.900002
2018-09-22T23:16:59.293Z,99.900002
2018-09-22T23:22:01.417Z,99.900002
2018-09-22T23:27:03.667Z,99.900002
2018-09-22T23:32:06.066Z,99.900002
2018-09-22T23:37:08.463Z,99.900002
2018-09-22T23:42:10.693Z,99.900002
2018-09-22T23:47:12.838Z,99.900002
2018-09-22T23:52:15.261Z,99.900002
2018-09-22T23:57:17.433Z,99.900002
